Time;durP1;ratioP1;P1;durP2;ratioP2;P2;SDS_P1;SDS_P2;PMS_P1;PMS_P2;Temp;Humidity;BMP_temperature;BMP_pressure;BME280_temperature;BME280_humidity;BME280_pressure;Samples;Min_cycle;Max_cycle;Signal;HPM_P1;HPM_P2
2021/12/01 00:01:53;;;;;;;2.83;1.60;;;20.70;54.80;;;;;;4927748;29;20203;-43
2021/12/01 00:04:24;;;;;;;3.33;1.40;;;20.70;54.80;;;;;;4929526;29;20235;-44
2021/12/01 00:06:54;;;;;;;3.20;1.50;;;20.60;54.80;;;;;;4928674;29;20790;-44
2021/12/01 00:09:25;;;;;;;4.47;1.60;;;20.60;54.80;;;;;;4928644;29;20199;-42
2021/12/01 00:11:55;;;;;;;2.15;1.27;;;20.60;54.80;;;;;;4929021;29;20263;-44
2021/12/01 00:14:26;;;;;;;2.45;1.40;;;20.60;54.80;;;;;;4929590;29;20680;-45
2021/12/01 00:16:58;;;;;;;3.10;1.45;;;20.60;54.90;;;;;;4929268;29;20223;-42
2021/12/01 00:19:30;;;;;;;3.95;1.55;;;20.60;54.80;;;;;;4928234;29;20201;-42
2021/12/01 00:22:01;;;;;;;4.20;1.50;;;20.60;54.80;;;;;;4929427;29;20212;-44
2021/12/01 00:24:31;;;;;;;3.90;1.30;;;20.60;54.80;;;;;;4927628;29;20687;-43
2021/12/01 00:27:02;;;;;;;3.45;1.40;;;20.60;54.80;;;;;;4927248;29;20700;-44
2021/12/01 00:29:32;;;;;;;5.10;1.75;;;20.60;54.80;;;;;;4928429;29;20262;-46
2021/12/01 00:32:06;;;;;;;3.47;1.30;;;20.60;54.70;;;;;;4928180;29;20199;-42
2021/12/01 00:34:37;;;;;;;2.80;1.40;;;20.60;54.60;;;;;;4928684;29;20259;-42
2021/12/01 00:37:07;;;;;;;2.17;1.20;;;20.60;54.60;;;;;;4927990;29;20290;-45
2021/12/01 00:39:38;;;;;;;2.53;1.15;;;20.60;54.60;;;;;;4928674;29;20207;-42
2021/12/01 00:42:09;;;;;;;5.22;2.08;;;20.60;54.60;;;;;;4928030;29;20203;-42
2021/12/01 00:44:46;;;;;;;2.50;1.58;;;20.60;54.60;;;;;;4928472;29;21529;-42
2021/12/01 00:47:18;;;;;;;3.40;1.30;;;20.60;54.60;;;;;;4928318;29;20270;-42
2021/12/01 00:49:49;;;;;;;3.67;1.52;;;20.60;54.60;;;;;;4928998;29;20195;-43
2021/12/01 00:52:19;;;;;;;4.10;1.40;;;20.60;54.60;;;;;;4927723;29;20251;-43
2021/12/01 00:54:50;;;;;;;2.50;1.23;;;20.60;54.60;;;;;;4928402;29;20208;-42
2021/12/01 00:57:21;;;;;;;3.33;1.60;;;20.60;54.60;;;;;;4927099;29;20699;-43
2021/12/01 00:59:51;;;;;;;2.47;1.50;;;20.60;54.60;;;;;;4928088;29;20668;-44
2021/12/01 01:02:23;;;;;;;3.75;1.35;;;20.60;54.50;;;;;;4928022;29;20199;-45
2021/12/01 01:04:54;;;;;;;2.85;1.40;;;20.60;54.40;;;;;;4927276;29;20219;-42
2021/12/01 01:07:25;;;;;;;3.30;1.70;;;20.60;54.40;;;;;;4927927;29;20223;-42
2021/12/01 01:09:58;;;;;;;2.92;1.20;;;20.60;54.40;;;;;;4928110;29;20267;-44
2021/12/01 01:18:05;;;;;;;4.85;1.77;;;20.60;54.20;;;;;;4928666;29;20231;-42
2021/12/01 01:20:36;;;;;;;5.60;1.80;;;20.70;54.30;;;;;;4927577;29;20980;-42
2021/12/01 01:23:07;;;;;;;3.90;1.30;;;20.60;54.20;;;;;;4927703;29;20262;-43
2021/12/01 01:25:38;;;;;;;4.45;1.70;;;20.60;54.20;;;;;;4928440;29;20704;-42
2021/12/01 01:28:08;;;;;;;3.70;1.83;;;20.70;54.20;;;;;;4927656;29;20286;-42
2021/12/01 01:30:39;;;;;;;3.63;1.58;;;20.60;54.10;;;;;;4928361;29;20199;-42
2021/12/01 01:33:11;;;;;;;2.38;1.30;;;20.60;54.10;;;;;;4926801;29;20656;-50
2021/12/01 01:35:42;;;;;;;2.92;1.45;;;20.60;54.10;;;;;;4928171;29;20212;-45
2021/12/01 01:38:13;;;;;;;2.45;1.38;;;20.60;54.10;;;;;;4927056;29;20632;-42
2021/12/01 01:40:43;;;;;;;3.72;1.50;;;20.60;54.10;;;;;;4927679;29;20235;-45
2021/12/01 01:43:14;;;;;;;3.42;1.45;;;20.70;54.10;;;;;;4927127;29;20268;-44
2021/12/01 01:45:46;;;;;;;4.18;1.60;;;20.70;54.10;;;;;;4927382;29;20223;-42
2021/12/01 01:48:22;;;;;;;4.38;1.42;;;20.60;53.90;;;;;;4927467;29;20715;-42
2021/12/01 01:50:53;;;;;;;2.28;1.02;;;20.70;54.00;;;;;;4927305;29;20199;-47
2021/12/01 01:53:24;;;;;;;3.13;1.48;;;20.70;53.90;;;;;;4928026;29;20199;-43
2021/12/01 01:55:57;;;;;;;7.07;2.42;;;20.70;54.00;;;;;;4927326;29;20679;-44
2021/12/01 01:58:29;;;;;;;5.30;1.95;;;20.60;53.90;;;;;;4928472;29;20291;-46
2021/12/01 02:01:07;;;;;;;3.85;1.27;;;20.60;53.90;;;;;;4927148;29;20226;-45
2021/12/01 02:03:42;;;;;;;2.90;1.48;;;20.70;53.90;;;;;;4926790;29;20634;-42
2021/12/01 02:06:14;;;;;;;2.28;1.40;;;20.60;53.80;;;;;;4927541;29;20234;-44
2021/12/01 02:08:46;;;;;;;3.00;1.40;;;20.70;53.80;;;;;;4929173;29;20763;-42
2021/12/01 02:11:19;;;;;;;3.05;1.42;;;20.70;53.80;;;;;;4930848;29;20770;-42
2021/12/01 02:13:50;;;;;;;3.88;1.27;;;20.70;53.80;;;;;;4931715;29;20226;-42
2021/12/01 02:16:22;;;;;;;3.97;1.60;;;20.70;53.80;;;;;;4932000;29;20719;-45
2021/12/01 02:18:55;;;;;;;2.65;1.25;;;20.70;53.80;;;;;;4931106;29;20251;-42
2021/12/01 02:21:28;;;;;;;2.20;1.58;;;20.70;54.00;;;;;;4930712;29;20199;-42
2021/12/01 02:24:01;;;;;;;4.82;1.30;;;20.70;54.00;;;;;;4931420;29;20620;-42
2021/12/01 02:26:34;;;;;;;4.25;1.45;;;20.70;54.00;;;;;;4930363;29;20286;-42
2021/12/01 02:29:07;;;;;;;4.22;1.50;;;20.70;54.50;;;;;;4930764;29;20208;-42
2021/12/01 02:31:38;;;;;;;2.47;1.60;;;20.70;54.00;;;;;;4931137;29;20255;-42
2021/12/01 02:34:11;;;;;;;2.42;1.40;;;20.70;54.00;;;;;;4930448;29;20755;-42
2021/12/01 02:36:46;;;;;;;4.05;1.90;;;20.70;54.00;;;;;;4928933;29;20207;-44
2021/12/01 02:39:17;;;;;;;4.35;1.95;;;20.70;54.00;;;;;;4931436;29;20199;-42
2021/12/01 02:41:55;;;;;;;5.47;1.70;;;20.70;54.00;;;;;;4931058;29;20200;-42
2021/12/01 02:44:27;;;;;;;4.22;1.70;;;20.70;54.00;;;;;;4931522;29;20254;-42
2021/12/01 02:46:58;;;;;;;4.53;1.38;;;20.70;54.00;;;;;;4929682;29;20234;-42
2021/12/01 02:49:29;;;;;;;3.55;1.30;;;20.70;54.00;;;;;;4931041;29;20298;-42
2021/12/01 02:52:01;;;;;;;2.97;1.20;;;20.70;54.00;;;;;;4930883;29;20212;-45
2021/12/01 02:54:32;;;;;;;2.70;1.25;;;20.70;54.00;;;;;;4929982;29;20211;-42
2021/12/01 02:57:03;;;;;;;3.63;1.70;;;20.70;54.00;;;;;;4929845;29;20231;-44
2021/12/01 02:59:33;;;;;;;3.33;1.80;;;20.70;54.00;;;;;;4928101;29;20612;-43
2021/12/01 03:02:04;;;;;;;1.65;1.02;;;20.70;54.40;;;;;;4930000;29;20200;-44
2021/12/01 03:04:37;;;;;;;2.92;1.40;;;20.80;55.30;;;;;;4930610;29;20595;-42
2021/12/01 03:07:09;;;;;;;2.85;1.55;;;20.80;55.40;;;;;;4930721;29;20219;-46
2021/12/01 03:09:40;;;;;;;3.83;1.50;;;20.80;55.00;;;;;;4930148;29;20196;-43
2021/12/01 03:12:11;;;;;;;2.35;1.15;;;20.80;54.80;;;;;;4930687;29;20207;-42
2021/12/01 03:14:42;;;;;;;4.70;1.63;;;20.80;54.60;;;;;;4930025;29;20196;-47
2021/12/01 03:17:12;;;;;;;3.42;1.30;;;20.80;54.40;;;;;;4929439;29;20674;-43
2021/12/01 03:19:43;;;;;;;3.25;1.30;;;20.80;54.40;;;;;;4929587;29;20254;-46
2021/12/01 03:22:18;;;;;;;4.05;1.80;;;20.80;54.30;;;;;;4929856;29;20207;-42
2021/12/01 03:24:49;;;;;;;5.50;1.73;;;20.80;54.30;;;;;;4928059;29;20199;-43
2021/12/01 03:27:20;;;;;;;6.40;1.77;;;20.80;54.40;;;;;;4928820;29;20263;-44
2021/12/01 03:29:52;;;;;;;2.50;1.33;;;20.80;54.40;;;;;;4930198;29;20203;-42
2021/12/01 03:32:22;;;;;;;3.13;1.65;;;20.80;54.30;;;;;;4930368;29;20264;-45
2021/12/01 03:34:53;;;;;;;2.75;1.55;;;20.80;54.30;;;;;;4927540;29;20211;-45
2021/12/01 03:37:25;;;;;;;2.92;1.52;;;20.80;54.30;;;;;;4929054;29;20278;-47
2021/12/01 03:39:58;;;;;;;3.90;1.80;;;20.80;54.40;;;;;;4930074;29;20267;-47
2021/12/01 03:42:29;;;;;;;2.25;1.40;;;20.80;54.30;;;;;;4928954;29;20200;-47
2021/12/01 03:45:00;;;;;;;3.20;1.35;;;20.80;54.40;;;;;;4929387;29;20299;-44
2021/12/01 03:47:31;;;;;;;1.60;1.20;;;20.80;54.30;;;;;;4928771;29;20224;-46
2021/12/01 03:50:02;;;;;;;3.05;1.42;;;20.80;54.30;;;;;;4930006;29;20204;-48
2021/12/01 03:52:35;;;;;;;3.85;1.42;;;20.80;54.30;;;;;;4929153;29;20200;-43
2021/12/01 03:55:06;;;;;;;4.85;1.88;;;20.80;54.40;;;;;;4929852;29;20260;-51
2021/12/01 03:57:37;;;;;;;4.70;1.80;;;20.80;54.40;;;;;;4927483;29;20298;-43
2021/12/01 04:00:10;;;;;;;3.45;1.92;;;20.80;54.30;;;;;;4928178;29;20210;-43
2021/12/01 04:02:41;;;;;;;5.35;2.45;;;20.80;54.30;;;;;;4928426;29;20199;-42
2021/12/01 04:05:12;;;;;;;5.55;2.15;;;20.80;54.30;;;;;;4928988;29;20274;-42
2021/12/01 04:07:45;;;;;;;8.13;2.50;;;20.80;54.40;;;;;;4929438;29;20275;-45
2021/12/01 04:10:17;;;;;;;5.05;2.00;;;20.80;54.40;;;;;;4928534;29;20203;-45
2021/12/01 04:12:48;;;;;;;4.60;1.83;;;20.80;54.40;;;;;;4929886;29;20267;-47
2021/12/01 04:15:19;;;;;;;4.65;1.83;;;20.80;54.40;;;;;;4929468;29;20199;-45
2021/12/01 04:17:51;;;;;;;4.13;2.78;;;20.80;54.40;;;;;;4928934;29;20271;-43
2021/12/01 04:20:22;;;;;;;7.20;3.03;;;20.80;54.40;;;;;;4928994;29;20648;-41
2021/12/01 04:22:54;;;;;;;5.03;2.42;;;20.80;54.60;;;;;;4929397;29;20251;-42
2021/12/01 04:25:25;;;;;;;6.03;3.20;;;20.80;54.50;;;;;;4928753;29;20227;-46
2021/12/01 04:27:55;;;;;;;4.47;2.60;;;20.80;54.50;;;;;;4927680;29;20227;-43
2021/12/01 04:30:27;;;;;;;5.28;3.50;;;20.80;54.40;;;;;;4928640;29;20203;-42
2021/12/01 04:32:58;;;;;;;4.85;3.42;;;20.80;54.40;;;;;;4929279;29;20415;-44
2021/12/01 04:35:30;;;;;;;5.70;3.58;;;20.80;54.60;;;;;;4930080;29;20621;-42
2021/12/01 04:38:03;;;;;;;5.50;3.85;;;20.80;54.70;;;;;;4927582;29;20751;-41
2021/12/01 04:40:33;;;;;;;8.48;3.85;;;20.80;54.80;;;;;;4927327;29;20208;-41
2021/12/01 04:43:04;;;;;;;8.32;3.97;;;20.70;54.80;;;;;;4929151;29;20735;-41
2021/12/01 04:45:36;;;;;;;7.60;4.22;;;20.80;54.80;;;;;;4926993;29;20227;-41
2021/12/01 04:48:07;;;;;;;6.80;4.00;;;20.70;54.70;;;;;;4927503;29;20246;-42
2021/12/01 04:50:39;;;;;;;7.03;3.95;;;20.80;54.70;;;;;;4928681;29;20204;-42
2021/12/01 04:53:12;;;;;;;9.90;4.05;;;20.80;54.70;;;;;;4928103;29;20200;-42
2021/12/01 04:55:43;;;;;;;7.15;3.97;;;20.80;54.80;;;;;;4927469;29;20215;-42
2021/12/01 04:58:14;;;;;;;8.27;3.80;;;20.80;54.80;;;;;;4928417;29;20802;-44
2021/12/01 05:00:45;;;;;;;5.57;3.78;;;20.70;54.70;;;;;;4928987;29;20246;-42
2021/12/01 05:03:15;;;;;;;5.68;3.55;;;20.80;54.70;;;;;;4928979;29;20207;-42
2021/12/01 05:05:46;;;;;;;5.93;3.90;;;20.70;54.60;;;;;;4927448;29;20649;-42
2021/12/01 05:08:20;;;;;;;5.15;3.45;;;20.70;54.70;;;;;;4928220;29;20283;-42
2021/12/01 05:10:50;;;;;;;5.18;3.95;;;20.70;54.80;;;;;;4928151;29;20247;-44
2021/12/01 05:13:21;;;;;;;10.00;4.40;;;20.80;54.70;;;;;;4928189;29;20262;-43
2021/12/01 05:15:52;;;;;;;14.30;10.35;;;20.80;54.70;;;;;;4928885;29;20664;-42
2021/12/01 05:18:22;;;;;;;16.63;10.07;;;20.80;54.70;;;;;;4916542;29;20223;-42
2021/12/01 05:20:53;;;;;;;14.40;10.77;;;20.80;54.60;;;;;;4929468;29;20258;-42
2021/12/01 05:23:25;;;;;;;16.58;10.38;;;20.80;54.70;;;;;;4929645;29;20192;-43
2021/12/01 05:25:56;;;;;;;12.80;9.30;;;20.80;54.70;;;;;;4929755;29;20235;-45
2021/12/01 05:28:27;;;;;;;10.55;8.23;;;20.80;54.80;;;;;;4928676;29;20259;-43
2021/12/01 05:30:57;;;;;;;9.23;7.47;;;20.80;54.80;;;;;;4928590;29;20200;-44
2021/12/01 05:33:28;;;;;;;9.20;5.95;;;20.80;54.90;;;;;;4929308;29;20211;-43
2021/12/01 05:35:59;;;;;;;10.20;6.53;;;20.80;55.00;;;;;;4927971;29;20259;-42
2021/12/01 05:38:32;;;;;;;10.02;5.35;;;20.80;55.10;;;;;;4927061;29;20632;-43
2021/12/01 05:41:05;;;;;;;9.25;4.43;;;20.80;55.50;;;;;;4928226;29;20232;-42
2021/12/01 05:43:35;;;;;;;7.07;4.40;;;20.80;55.60;;;;;;4932208;29;20212;-43
2021/12/01 05:46:06;;;;;;;8.55;5.05;;;20.80;55.60;;;;;;4929808;29;20262;-43
2021/12/01 05:48:37;;;;;;;7.93;5.25;;;20.80;55.60;;;;;;4926848;29;20268;-42
2021/12/01 05:51:08;;;;;;;8.73;4.70;;;20.80;55.50;;;;;;4926652;29;20263;-42
2021/12/01 05:53:40;;;;;;;8.25;4.13;;;20.80;55.60;;;;;;4931853;29;20364;-45
2021/12/01 05:56:11;;;;;;;5.97;3.90;;;20.80;55.60;;;;;;4931163;29;20216;-44
2021/12/01 05:58:42;;;;;;;10.48;4.50;;;20.80;55.50;;;;;;4931692;29;20231;-42
2021/12/01 06:01:12;;;;;;;7.75;3.92;;;20.80;55.60;;;;;;4931170;29;20212;-42
2021/12/01 06:03:43;;;;;;;6.53;4.53;;;20.80;55.80;;;;;;4931860;29;20208;-42
2021/12/01 06:06:14;;;;;;;7.15;4.03;;;20.80;55.80;;;;;;4932086;29;20291;-42
2021/12/01 06:08:46;;;;;;;7.32;4.50;;;20.80;55.80;;;;;;4931551;29;20216;-44
2021/12/01 06:11:18;;;;;;;8.82;4.65;;;20.80;56.00;;;;;;4931444;29;20672;-42
2021/12/01 06:13:50;;;;;;;10.45;6.28;;;20.80;55.90;;;;;;4931506;29;20195;-43
2021/12/01 06:16:28;;;;;;;14.75;7.05;;;20.80;55.90;;;;;;4931683;29;20326;-43
2021/12/01 06:18:59;;;;;;;13.40;7.78;;;20.80;56.00;;;;;;4931818;29;20207;-45
2021/12/01 06:21:30;;;;;;;15.48;7.07;;;20.80;55.90;;;;;;4921087;29;20195;-46
2021/12/01 06:24:02;;;;;;;16.77;8.07;;;20.80;55.90;;;;;;4931003;29;20307;-44
2021/12/01 06:26:33;;;;;;;15.43;8.63;;;20.80;56.00;;;;;;4930593;29;20227;-42
2021/12/01 06:29:03;;;;;;;14.98;8.82;;;20.80;56.00;;;;;;4930876;29;20251;-47
2021/12/01 06:31:34;;;;;;;15.32;8.27;;;20.80;56.00;;;;;;4931773;29;20259;-42
2021/12/01 06:34:04;;;;;;;16.45;8.55;;;20.90;56.10;;;;;;4930897;29;20208;-46
2021/12/01 06:36:35;;;;;;;17.02;8.95;;;20.90;56.10;;;;;;4929324;29;20723;-42
2021/12/01 06:39:09;;;;;;;14.43;8.07;;;20.90;56.10;;;;;;4931015;29;20206;-43
2021/12/01 06:41:39;;;;;;;15.40;7.60;;;20.90;56.20;;;;;;4930478;29;20255;-42
2021/12/01 06:44:10;;;;;;;13.90;7.50;;;20.90;56.10;;;;;;4930793;29;20266;-42
2021/12/01 06:46:41;;;;;;;15.68;7.57;;;20.90;56.00;;;;;;4929995;29;20274;-42
2021/12/01 06:49:11;;;;;;;18.15;7.25;;;20.90;56.00;;;;;;4930253;29;20258;-42
2021/12/01 06:51:42;;;;;;;16.00;7.68;;;20.90;55.90;;;;;;4926010;29;20200;-43
2021/12/01 06:54:14;;;;;;;13.85;6.57;;;20.90;55.80;;;;;;4931941;29;20199;-46
2021/12/01 06:56:45;;;;;;;16.00;7.63;;;20.90;55.80;;;;;;4929669;29;20200;-42
2021/12/01 06:59:16;;;;;;;13.75;6.57;;;20.90;55.80;;;;;;4930539;29;20204;-45
2021/12/01 07:01:46;;;;;;;14.13;7.00;;;20.90;55.80;;;;;;4929588;29;20199;-44
2021/12/01 07:04:17;;;;;;;13.13;6.47;;;20.90;55.80;;;;;;4929461;29;20203;-46
2021/12/01 07:06:48;;;;;;;13.35;5.95;;;20.90;55.60;;;;;;4930251;29;20223;-46
2021/12/01 07:09:23;;;;;;;14.50;6.15;;;20.90;55.80;;;;;;4929099;29;20219;-44
2021/12/01 07:11:53;;;;;;;11.00;5.85;;;20.90;55.80;;;;;;4930296;29;20284;-44
2021/12/01 07:14:27;;;;;;;10.55;6.25;;;20.90;55.80;;;;;;4930739;29;20211;-43
2021/12/01 07:16:58;;;;;;;9.55;5.15;;;20.90;55.80;;;;;;4931641;29;20259;-45
2021/12/01 07:19:29;;;;;;;15.30;6.18;;;20.90;55.70;;;;;;4930997;29;20199;-43
2021/12/01 07:21:59;;;;;;;10.57;4.82;;;20.90;55.70;;;;;;4924726;29;20204;-44
2021/12/01 07:24:32;;;;;;;10.43;5.15;;;21.00;55.70;;;;;;4923278;29;20207;-46
2021/12/01 07:27:02;;;;;;;8.15;5.15;;;21.00;55.80;;;;;;4929049;29;20231;-44
2021/12/01 07:29:34;;;;;;;8.88;5.07;;;21.00;55.90;;;;;;4928892;29;20262;-43
2021/12/01 07:32:05;;;;;;;10.32;5.10;;;21.00;55.80;;;;;;4929659;29;21060;-45
2021/12/01 07:34:41;;;;;;;7.50;4.45;;;21.00;55.90;;;;;;4929636;29;20203;-42
2021/12/01 07:37:12;;;;;;;10.73;5.05;;;21.00;56.10;;;;;;4930430;29;20306;-45
2021/12/01 07:39:45;;;;;;;9.02;4.80;;;21.00;56.10;;;;;;4930717;29;20204;-42
2021/12/01 07:42:17;;;;;;;8.07;4.65;;;21.00;56.10;;;;;;4930450;29;20203;-42
2021/12/01 07:44:47;;;;;;;7.90;4.43;;;21.00;56.10;;;;;;4930141;29;20646;-43
2021/12/01 07:47:18;;;;;;;8.75;4.50;;;21.00;56.10;;;;;;4929334;29;20302;-43
2021/12/01 07:49:48;;;;;;;7.18;4.20;;;21.00;56.00;;;;;;4930462;29;20215;-42
2021/12/01 07:52:19;;;;;;;7.22;3.85;;;20.90;55.90;;;;;;4929379;29;20264;-44
2021/12/01 07:54:52;;;;;;;6.55;3.92;;;21.00;56.00;;;;;;4930001;29;20715;-42
2021/12/01 07:57:22;;;;;;;8.88;4.30;;;21.00;56.00;;;;;;4930004;29;20224;-42
2021/12/01 07:59:53;;;;;;;8.00;4.60;;;21.00;55.90;;;;;;4927773;29;20612;-42
2021/12/01 08:02:23;;;;;;;7.72;4.30;;;21.00;55.90;;;;;;4930892;29;20256;-44
2021/12/01 08:04:54;;;;;;;9.30;4.05;;;21.00;55.80;;;;;;4930438;29;20199;-45
2021/12/01 08:07:27;;;;;;;8.50;4.13;;;21.00;55.70;;;;;;4929371;29;20231;-42
2021/12/01 08:10:02;;;;;;;5.97;4.20;;;21.00;55.70;;;;;;4929808;29;20204;-44
2021/12/01 08:12:34;;;;;;;6.13;3.78;;;21.00;55.60;;;;;;4928661;29;20207;-43
2021/12/01 08:15:05;;;;;;;5.68;4.05;;;21.10;55.60;;;;;;4929851;29;20207;-43
2021/12/01 08:17:36;;;;;;;6.93;4.10;;;21.10;55.60;;;;;;4928681;29;20228;-42
2021/12/01 08:20:07;;;;;;;7.50;4.07;;;21.10;55.50;;;;;;4929438;29;20197;-44
2021/12/01 08:22:38;;;;;;;5.78;3.78;;;21.10;55.40;;;;;;4929655;29;20211;-42
2021/12/01 08:25:11;;;;;;;6.32;4.00;;;21.10;55.40;;;;;;4930178;29;20603;-42
2021/12/01 08:27:42;;;;;;;6.90;3.78;;;21.10;55.30;;;;;;4929708;29;20831;-44
2021/12/01 08:30:14;;;;;;;6.00;3.78;;;21.10;55.30;;;;;;4928738;29;20271;-44
2021/12/01 08:32:47;;;;;;;6.80;3.85;;;21.00;55.40;;;;;;4929218;29;20207;-43
2021/12/01 08:35:18;;;;;;;6.63;3.60;;;21.00;55.40;;;;;;4928601;29;20199;-46
2021/12/01 08:37:48;;;;;;;6.63;3.45;;;21.00;55.30;;;;;;4928647;29;20292;-45
2021/12/01 08:40:21;;;;;;;6.35;3.78;;;21.00;55.30;;;;;;4929312;29;20271;-43
2021/12/01 08:42:51;;;;;;;6.03;3.40;;;21.00;55.40;;;;;;4928578;29;20230;-48
2021/12/01 08:45:22;;;;;;;6.40;3.40;;;21.00;55.40;;;;;;4927765;29;20266;-42
2021/12/01 08:47:53;;;;;;;7.72;3.55;;;21.00;55.40;;;;;;4928774;29;20905;-44
2021/12/01 08:50:23;;;;;;;6.03;2.90;;;21.00;55.50;;;;;;4929291;29;20203;-46
2021/12/01 08:52:54;;;;;;;6.10;3.10;;;21.10;55.50;;;;;;4929413;29;20199;-45
2021/12/01 08:55:28;;;;;;;4.78;2.97;;;21.00;55.50;;;;;;4928596;29;20680;-46
2021/12/01 08:57:58;;;;;;;4.35;2.88;;;21.00;55.40;;;;;;4928252;29;20219;-43
2021/12/01 09:00:33;;;;;;;6.05;3.30;;;21.00;55.40;;;;;;4927970;29;20200;-43
2021/12/01 09:03:04;;;;;;;6.30;3.00;;;21.00;55.40;;;;;;4926967;29;20206;-42
2021/12/01 09:05:34;;;;;;;6.80;3.13;;;21.10;55.40;;;;;;4929104;29;20648;-43
2021/12/01 09:08:05;;;;;;;5.32;3.05;;;21.10;55.30;;;;;;4928867;29;20235;-42
2021/12/01 09:10:38;;;;;;;4.88;3.17;;;21.00;55.30;;;;;;4929650;29;20262;-44
2021/12/01 09:13:13;;;;;;;5.10;2.83;;;21.00;55.30;;;;;;4928971;29;20203;-45
2021/12/01 09:15:44;;;;;;;5.90;3.08;;;21.00;55.30;;;;;;4929967;29;20281;-43
2021/12/01 09:18:15;;;;;;;5.97;3.25;;;21.10;55.20;;;;;;4931858;29;20215;-44
2021/12/01 09:20:45;;;;;;;5.32;3.25;;;21.00;55.20;;;;;;4932945;29;20200;-43
2021/12/01 09:23:17;;;;;;;5.47;2.35;;;21.10;55.20;;;;;;4932522;29;20614;-42
2021/12/01 09:25:50;;;;;;;4.00;2.60;;;21.10;55.10;;;;;;4932234;29;20755;-43
2021/12/01 09:28:22;;;;;;;3.55;2.60;;;21.10;55.10;;;;;;4932434;29;20226;-42
2021/12/01 09:30:54;;;;;;;4.28;2.70;;;21.10;55.00;;;;;;4931374;29;20207;-42
2021/12/01 09:33:25;;;;;;;4.80;2.72;;;21.00;55.00;;;;;;4931511;29;20245;-45
2021/12/01 09:35:55;;;;;;;6.13;2.85;;;21.10;55.00;;;;;;4934583;29;20255;-43
2021/12/01 09:38:26;;;;;;;5.53;2.90;;;21.10;54.90;;;;;;4919525;29;20291;-44
2021/12/01 09:41:02;;;;;;;3.50;2.53;;;21.10;54.90;;;;;;4919582;29;20200;-44
2021/12/01 09:43:34;;;;;;;3.45;2.65;;;21.10;54.80;;;;;;4932341;29;20203;-43
2021/12/01 09:46:09;;;;;;;5.63;2.72;;;21.10;54.70;;;;;;4931805;29;20199;-45
2021/12/01 09:48:41;;;;;;;4.03;2.58;;;21.10;54.70;;;;;;4933279;29;20230;-43
2021/12/01 09:51:13;;;;;;;3.92;2.80;;;21.10;54.70;;;;;;4933095;28;20302;-43
2021/12/01 09:53:43;;;;;;;3.28;2.35;;;21.10;54.70;;;;;;4932038;29;20207;-43
2021/12/01 09:56:16;;;;;;;4.65;2.88;;;21.10;54.70;;;;;;4933189;29;20211;-43
2021/12/01 09:58:48;;;;;;;4.32;2.58;;;21.00;54.70;;;;;;4933406;29;20284;-43
2021/12/01 10:01:22;;;;;;;3.38;2.45;;;21.00;54.70;;;;;;4917311;29;20208;-44
2021/12/01 10:03:52;;;;;;;4.35;2.75;;;21.00;54.70;;;;;;4933346;29;20238;-43
2021/12/01 10:06:24;;;;;;;3.35;2.35;;;21.00;54.70;;;;;;4933895;29;20203;-42
2021/12/01 10:08:56;;;;;;;3.03;2.42;;;21.00;54.70;;;;;;4933076;29;20286;-44
2021/12/01 10:11:30;;;;;;;4.43;2.22;;;21.00;54.70;;;;;;4932861;29;20290;-43
2021/12/01 10:14:03;;;;;;;3.55;2.70;;;21.00;54.70;;;;;;4931548;29;20274;-44
2021/12/01 10:16:41;;;;;;;3.28;2.50;;;21.00;54.60;;;;;;4928244;29;20676;-43
2021/12/01 10:19:13;;;;;;;3.10;2.40;;;21.00;54.60;;;;;;4927839;29;20215;-43
2021/12/01 10:21:46;;;;;;;3.00;2.30;;;21.00;54.60;;;;;;4924226;29;20337;-43
2021/12/01 10:24:21;;;;;;;4.72;2.67;;;21.00;54.60;;;;;;4924245;29;20282;-42
2021/12/01 10:27:00;;;;;;;3.20;2.28;;;21.00;54.60;;;;;;4925603;29;20274;-43
2021/12/01 10:29:35;;;;;;;3.50;2.20;;;20.90;54.50;;;;;;4919694;29;20199;-44
2021/12/01 10:32:20;;;;;;;2.35;2.15;;;20.90;54.50;;;;;;4933501;29;20202;-42
2021/12/01 10:34:53;;;;;;;3.65;2.50;;;20.90;54.50;;;;;;4922708;29;20200;-44
2021/12/01 10:37:26;;;;;;;3.30;2.17;;;20.90;54.50;;;;;;4916374;29;20688;-42
2021/12/01 10:40:09;;;;;;;4.05;2.13;;;20.90;55.20;;;;;;4933138;29;20672;-43
2021/12/01 10:42:54;;;;;;;2.20;1.92;;;20.80;54.50;;;;;;4917466;29;20204;-42
2021/12/01 10:45:26;;;;;;;3.75;2.35;;;20.80;54.60;;;;;;4932211;29;20714;-42
2021/12/01 10:47:57;;;;;;;3.13;2.40;;;20.80;54.60;;;;;;4932083;29;20255;-42
2021/12/01 10:50:31;;;;;;;3.00;2.55;;;20.80;54.60;;;;;;4930743;29;20212;-42
2021/12/01 10:53:07;;;;;;;3.45;2.10;;;20.80;54.60;;;;;;4932366;29;20259;-42
2021/12/01 10:55:47;;;;;;;3.42;2.38;;;20.70;55.20;;;;;;4932701;29;21124;-42
2021/12/01 10:58:19;;;;;;;2.92;2.38;;;20.80;54.60;;;;;;4924837;29;20231;-43
2021/12/01 11:00:51;;;;;;;3.90;2.50;;;20.80;54.50;;;;;;4930834;29;20255;-42
2021/12/01 11:03:24;;;;;;;3.97;2.13;;;20.70;54.50;;;;;;4930762;29;20239;-42
2021/12/01 11:05:55;;;;;;;2.45;2.08;;;20.70;55.00;;;;;;4930648;29;20199;-42
2021/12/01 11:08:27;;;;;;;2.83;2.33;;;20.70;54.40;;;;;;4930789;29;20231;-42
2021/12/01 11:11:00;;;;;;;3.45;2.30;;;20.70;54.40;;;;;;4932223;29;20211;-42
2021/12/01 11:13:33;;;;;;;3.45;2.28;;;20.80;54.40;;;;;;4932516;29;20206;-42
2021/12/01 11:16:06;;;;;;;2.83;1.95;;;20.70;54.40;;;;;;4926938;29;20203;-42
2021/12/01 11:18:41;;;;;;;3.28;2.10;;;20.70;54.40;;;;;;4921521;29;20633;-42
2021/12/01 11:21:14;;;;;;;3.00;2.00;;;20.70;54.40;;;;;;4931810;29;20203;-43
2021/12/01 11:23:45;;;;;;;2.55;2.03;;;20.70;54.50;;;;;;4931896;29;20200;-43
2021/12/01 11:26:18;;;;;;;2.55;2.00;;;20.60;54.50;;;;;;4931488;29;20266;-42
2021/12/01 11:28:51;;;;;;;4.13;2.28;;;20.60;54.50;;;;;;4931891;29;20228;-43
2021/12/01 11:31:24;;;;;;;3.45;2.30;;;20.60;54.60;;;;;;4933008;29;20207;-42
2021/12/01 11:33:58;;;;;;;3.33;2.00;;;20.60;54.60;;;;;;4932393;29;20255;-42
2021/12/01 11:36:30;;;;;;;2.72;1.80;;;20.60;54.60;;;;;;4933086;29;20200;-42
2021/12/01 11:39:02;;;;;;;2.15;1.95;;;20.60;54.60;;;;;;4931993;29;20700;-43
2021/12/01 11:41:36;;;;;;;2.67;1.80;;;20.60;54.60;;;;;;4929688;29;20208;-42
2021/12/01 11:44:09;;;;;;;2.55;2.00;;;20.50;54.50;;;;;;4931753;29;20204;-42
2021/12/01 11:46:39;;;;;;;2.08;1.80;;;20.60;54.50;;;;;;4930501;29;20203;-42
2021/12/01 11:49:11;;;;;;;2.15;1.77;;;20.60;54.50;;;;;;4929864;29;20842;-42
2021/12/01 11:51:46;;;;;;;4.10;2.03;;;20.50;54.90;;;;;;4925167;29;20263;-42
2021/12/01 11:54:19;;;;;;;1.90;1.70;;;20.50;54.30;;;;;;4931077;29;20262;-42
2021/12/01 11:56:55;;;;;;;2.22;1.90;;;20.60;54.40;;;;;;4930033;29;20196;-43
2021/12/01 11:59:29;;;;;;;2.20;2.00;;;20.50;54.30;;;;;;4925887;29;20248;-42
2021/12/01 12:02:04;;;;;;;2.58;1.80;;;20.50;54.40;;;;;;4918266;29;20208;-44
2021/12/01 12:04:48;;;;;;;2.88;1.90;;;20.50;54.40;;;;;;4920251;29;20210;-42
2021/12/01 12:07:23;;;;;;;2.00;1.80;;;20.50;54.40;;;;;;4931667;29;20579;-43
2021/12/01 12:10:15;;;;;;;2.17;1.85;;;20.50;54.40;;;;;;4931177;29;20383;-42
2021/12/01 12:13:04;;;;;;;2.30;2.08;;;20.40;54.40;;;;;;4929618;29;20295;-42
2021/12/01 12:15:50;;;;;;;3.13;2.10;;;20.40;54.50;;;;;;4926681;29;20263;-42
2021/12/01 12:18:52;;;;;;;2.05;1.65;;;20.40;54.60;;;;;;4921631;29;20622;-42
2021/12/01 12:21:29;;;;;;;2.03;1.83;;;20.40;54.40;;;;;;4930743;29;20694;-42
2021/12/01 12:24:08;;;;;;;1.98;1.63;;;20.40;54.40;;;;;;4919268;29;20215;-43
2021/12/01 12:26:42;;;;;;;1.67;1.58;;;20.40;54.40;;;;;;4925780;29;20610;-42
2021/12/01 12:29:14;;;;;;;1.92;1.73;;;20.30;54.50;;;;;;4929822;29;20825;-44
2021/12/01 12:31:47;;;;;;;2.63;1.63;;;20.30;54.60;;;;;;4929723;29;20207;-42
2021/12/01 12:34:20;;;;;;;2.70;1.65;;;20.30;54.40;;;;;;4924747;29;20209;-42
2021/12/01 12:36:53;;;;;;;2.67;1.55;;;20.30;54.30;;;;;;4929364;29;20262;-42
2021/12/01 12:39:25;;;;;;;2.58;1.80;;;20.30;54.30;;;;;;4927162;29;20278;-43
2021/12/01 12:42:12;;;;;;;1.83;1.70;;;20.30;54.30;;;;;;4917074;29;20211;-43
2021/12/01 12:44:44;;;;;;;2.40;1.70;;;20.30;54.40;;;;;;4925468;29;20196;-43
2021/12/01 12:47:19;;;;;;;2.15;1.58;;;20.30;54.40;;;;;;4919129;29;20266;-42
2021/12/01 12:49:52;;;;;;;1.92;1.73;;;20.30;54.40;;;;;;4931581;29;20223;-42
2021/12/01 12:52:34;;;;;;;1.73;1.63;;;20.30;54.30;;;;;;4930690;29;20200;-42
2021/12/01 12:55:10;;;;;;;2.03;1.52;;;20.20;54.30;;;;;;4928434;29;20203;-42
2021/12/01 12:57:56;;;;;;;2.22;1.58;;;20.20;54.30;;;;;;4930356;29;20719;-42
2021/12/01 13:00:28;;;;;;;1.70;1.60;;;20.20;54.40;;;;;;4923210;29;20222;-42
2021/12/01 13:03:02;;;;;;;2.25;1.98;;;20.20;54.40;;;;;;4931584;29;20196;-43
2021/12/01 13:05:35;;;;;;;2.17;1.60;;;20.20;54.40;;;;;;4931536;29;20247;-42
2021/12/01 13:08:26;;;;;;;2.60;1.80;;;20.20;54.40;;;;;;4930690;29;20223;-43
2021/12/01 13:11:00;;;;;;;1.90;1.70;;;20.20;54.40;;;;;;4914933;29;20267;-42
2021/12/01 13:13:34;;;;;;;1.60;1.50;;;20.10;54.40;;;;;;4931473;29;20200;-42
2021/12/01 13:16:06;;;;;;;1.60;1.50;;;20.10;54.40;;;;;;4929776;29;20249;-43
2021/12/01 13:18:41;;;;;;;1.77;1.67;;;20.10;54.30;;;;;;4930709;29;20277;-42